createdAt,value
2019-03-27T00:00:09.572Z,49.03
2019-03-27T00:02:39.721Z,46.25
2019-03-27T00:05:08.461Z,43.35
2019-03-27T00:07:37.067Z,48.45
2019-03-27T00:10:09.327Z,45.70
2019-03-27T00:12:38.397Z,46.53
2019-03-27T00:15:13.142Z,51.58
2019-03-27T00:17:39.818Z,44.08
2019-03-27T00:20:10.474Z,43.17
2019-03-27T00:22:39.100Z,50.67
2019-03-27T00:25:09.154Z,37.65
2019-03-27T00:27:37.802Z,43.02
2019-03-27T00:30:10.395Z,47.15
2019-03-27T00:32:39.050Z,50.17
2019-03-27T00:35:09.342Z,50.35
2019-03-27T00:37:38.160Z,41.90
2019-03-27T00:40:07.414Z,39.80
2019-03-27T00:42:36.110Z,47.27
2019-03-27T00:45:07.044Z,39.75
2019-03-27T00:47:35.639Z,41.08
2019-03-27T00:50:06.107Z,47.17
2019-03-27T00:52:34.701Z,39.35
2019-03-27T00:55:03.720Z,42.25
2019-03-27T00:57:32.303Z,52.03
2019-03-27T01:00:01.089Z,37.25
2019-03-27T01:02:29.714Z,52.48
2019-03-27T01:04:58.370Z,43.75
2019-03-27T01:07:26.989Z,49.83
2019-03-27T01:09:55.614Z,57.43
2019-03-27T01:12:24.156Z,54.00
2019-03-27T01:14:52.731Z,56.60
2019-03-27T01:17:21.303Z,44.50
2019-03-27T01:19:49.891Z,53.33
2019-03-27T01:22:18.478Z,42.62
2019-03-27T01:24:47.021Z,48.42
2019-03-27T01:27:16.016Z,46.58
2019-03-27T01:29:44.591Z,41.75
2019-03-27T01:32:13.165Z,47.95
2019-03-27T01:34:41.753Z,50.08
2019-03-27T01:37:10.377Z,40.70
2019-03-27T01:39:38.922Z,45.63
2019-03-27T01:42:07.525Z,40.30
2019-03-27T01:44:36.507Z,43.38
2019-03-27T01:47:05.330Z,53.15
2019-03-27T01:49:33.877Z,51.33
2019-03-27T01:52:02.883Z,46.48
2019-03-27T01:54:31.474Z,49.63
2019-03-27T01:57:00.210Z,44.90
2019-03-27T01:59:28.795Z,53.58
2019-03-27T02:01:57.376Z,50.85
2019-03-27T02:04:25.985Z,54.88
2019-03-27T02:06:54.970Z,45.52
2019-03-27T02:09:23.548Z,54.83
2019-03-27T02:11:52.062Z,60.00
2019-03-27T02:14:20.620Z,54.75
2019-03-27T02:16:49.147Z,58.73
2019-03-27T02:19:17.687Z,61.02
2019-03-27T02:21:46.212Z,65.72
2019-03-27T02:24:14.777Z,59.55
2019-03-27T02:26:43.428Z,65.85
2019-03-27T02:29:12.044Z,63.65
2019-03-27T02:31:40.679Z,60.43
2019-03-27T02:34:09.263Z,52.90
2019-03-27T02:36:37.821Z,69.95
2019-03-27T02:39:06.752Z,60.65
2019-03-27T02:41:35.339Z,63.28
2019-03-27T02:44:04.417Z,62.65
2019-03-27T02:46:32.974Z,59.67
2019-03-27T02:49:01.520Z,49.90
2019-03-27T02:51:30.163Z,53.65
2019-03-27T02:53:58.805Z,54.10
2019-03-27T02:56:27.343Z,76.28
2019-03-27T02:58:56.343Z,65.97
2019-03-27T03:01:25.328Z,66.10
2019-03-27T03:03:53.873Z,85.40
2019-03-27T03:06:22.647Z,83.42
2019-03-27T03:08:51.573Z,81.12
2019-03-27T03:11:20.202Z,82.53
2019-03-27T03:13:48.738Z,78.17
2019-03-27T03:16:17.431Z,86.00
2019-03-27T03:18:46.041Z,78.97
2019-03-27T03:21:14.612Z,73.07
2019-03-27T03:23:43.707Z,66.40
2019-03-27T03:26:12.409Z,67.03
2019-03-27T03:28:41.089Z,66.65
2019-03-27T03:31:09.725Z,65.28
2019-03-27T03:33:38.248Z,66.02
2019-03-27T03:36:06.969Z,67.92
2019-03-27T03:38:35.578Z,67.03
2019-03-27T03:41:04.276Z,62.05
2019-03-27T03:43:32.850Z,69.55
2019-03-27T03:46:01.442Z,88.30
2019-03-27T03:48:29.970Z,62.27
2019-03-27T03:51:00.068Z,66.33
2019-03-27T03:53:30.444Z,64.53
2019-03-27T03:56:00.805Z,73.67
2019-03-27T03:58:32.542Z,63.68
2019-03-27T04:01:01.498Z,58.05
2019-03-27T04:03:32.161Z,57.33
2019-03-27T04:06:00.705Z,64.32
2019-03-27T04:08:29.312Z,63.85
2019-03-27T04:10:58.306Z,58.73
2019-03-27T04:13:26.898Z,58.98
2019-03-27T04:15:55.499Z,55.78
2019-03-27T04:18:23.974Z,63.92
2019-03-27T04:20:52.598Z,70.47
2019-03-27T04:23:21.265Z,78.50
2019-03-27T04:26:10.377Z,74.47
2019-03-27T04:28:20.248Z,84.22
2019-03-27T04:30:48.918Z,82.27
2019-03-27T04:33:17.473Z,90.30
2019-03-27T04:35:46.041Z,86.87
2019-03-27T04:38:14.670Z,93.92
2019-03-27T04:40:43.304Z,84.85
2019-03-27T04:43:11.995Z,73.85
2019-03-27T04:45:40.554Z,90.97
2019-03-27T04:48:09.179Z,80.80
2019-03-27T04:50:37.816Z,65.00
2019-03-27T04:53:06.502Z,76.17
2019-03-27T04:55:35.078Z,77.55
2019-03-27T04:58:03.714Z,64.27
2019-03-27T05:00:32.328Z,73.22
2019-03-27T05:03:00.926Z,60.45
2019-03-27T05:05:29.418Z,71.97
2019-03-27T05:07:57.944Z,68.47
2019-03-27T05:10:26.472Z,65.15
2019-03-27T05:12:55.071Z,77.03
2019-03-27T05:15:23.652Z,80.42
2019-03-27T05:17:52.241Z,85.40
2019-03-27T05:20:20.860Z,87.12
2019-03-27T05:22:49.449Z,74.95
2019-03-27T05:25:18.104Z,74.00
2019-03-27T05:27:46.745Z,71.77
2019-03-27T05:30:18.373Z,86.20
2019-03-27T05:32:46.967Z,84.40
2019-03-27T05:35:15.527Z,65.22
2019-03-27T05:37:44.111Z,56.92
2019-03-27T05:40:12.636Z,64.03
2019-03-27T05:42:41.132Z,66.75
2019-03-27T05:45:09.837Z,60.43
2019-03-27T05:47:38.460Z,79.90
2019-03-27T05:50:07.689Z,81.08
2019-03-27T05:52:42.153Z,62.78
2019-03-27T05:55:13.793Z,67.97
2019-03-27T05:57:45.493Z,60.35
2019-03-27T06:00:19.074Z,81.30
2019-03-27T06:02:47.964Z,91.10
2019-03-27T06:05:20.592Z,73.52
2019-03-27T06:07:52.243Z,88.03
2019-03-27T06:10:21.166Z,83.67
2019-03-27T06:12:51.304Z,81.95
2019-03-27T06:15:19.889Z,90.20
2019-03-27T06:17:50.018Z,96.78
2019-03-27T06:20:18.657Z,86.95
2019-03-27T06:22:49.078Z,84.75
2019-03-27T06:25:17.655Z,85.05
2019-03-27T06:27:46.693Z,83.37
2019-03-27T06:30:16.003Z,82.70
2019-03-27T06:32:45.316Z,70.52
2019-03-27T06:35:20.064Z,77.45
2019-03-27T06:37:51.861Z,83.87
2019-03-27T06:40:20.499Z,72.70
2019-03-27T06:42:49.100Z,58.23
2019-03-27T06:45:17.856Z,63.68
2019-03-27T06:47:46.388Z,62.73
2019-03-27T06:50:16.609Z,49.05
2019-03-27T06:52:45.319Z,54.35
2019-03-27T06:55:14.109Z,54.93
2019-03-27T06:57:43.182Z,45.92
2019-03-27T07:00:12.744Z,46.13
2019-03-27T07:02:41.320Z,38.45
2019-03-27T07:05:10.170Z,47.60
2019-03-27T07:07:38.836Z,48.68
2019-03-27T07:10:08.744Z,49.33
2019-03-27T07:12:37.488Z,45.75
2019-03-27T07:15:08.168Z,45.55
2019-03-27T07:17:36.795Z,43.92
2019-03-27T07:20:08.430Z,41.45
2019-03-27T07:22:36.995Z,40.78
2019-03-27T07:25:07.818Z,48.23
2019-03-27T07:27:36.362Z,46.80
2019-03-27T07:30:06.667Z,46.23
2019-03-27T07:32:35.226Z,42.73
2019-03-27T07:35:04.681Z,35.68
2019-03-27T07:37:33.202Z,32.28
2019-03-27T07:40:01.848Z,34.60
2019-03-27T07:42:30.833Z,42.98
2019-03-27T07:44:59.420Z,42.33
2019-03-27T07:47:32.425Z,43.00
2019-03-27T07:50:00.936Z,33.50
2019-03-27T07:52:29.603Z,32.93
2019-03-27T07:54:58.135Z,30.72
2019-03-27T07:57:27.924Z,31.15
2019-03-27T07:59:56.487Z,32.90
2019-03-27T08:02:24.997Z,29.10
2019-03-27T08:04:53.553Z,21.12
2019-03-27T08:07:27.122Z,21.00
2019-03-27T08:09:52.456Z,19.30
2019-03-27T08:12:20.986Z,22.02
2019-03-27T08:14:49.530Z,20.12
2019-03-27T08:17:18.069Z,18.23
2019-03-27T08:19:46.592Z,17.50
2019-03-27T08:22:15.181Z,18.27
2019-03-27T08:24:44.600Z,19.85
2019-03-27T08:27:14.587Z,13.30
2019-03-27T08:29:43.691Z,13.80
2019-03-27T08:32:12.189Z,16.07
2019-03-27T08:34:41.003Z,16.55
2019-03-27T08:37:09.570Z,18.62
2019-03-27T08:39:38.022Z,15.10
2019-03-27T08:42:06.527Z,16.52
2019-03-27T08:44:35.007Z,22.17
2019-03-27T08:47:03.572Z,19.05
2019-03-27T08:49:32.165Z,11.80
2019-03-27T08:52:01.055Z,10.00
2019-03-27T08:54:29.616Z,11.57
2019-03-27T08:56:58.152Z,12.55
2019-03-27T08:59:26.676Z,12.23
2019-03-27T09:01:55.223Z,8.50
2019-03-27T09:04:23.723Z,12.20
2019-03-27T09:06:52.281Z,10.82
2019-03-27T09:09:20.751Z,10.93
2019-03-27T09:11:49.263Z,10.10
2019-03-27T09:14:17.867Z,10.50
2019-03-27T09:16:46.465Z,8.23
2019-03-27T09:19:14.972Z,8.85
2019-03-27T09:21:43.544Z,10.08
2019-03-27T09:24:12.063Z,13.18
2019-03-27T09:26:40.879Z,10.50
2019-03-27T09:29:09.396Z,9.98
2019-03-27T09:31:44.558Z,7.03
2019-03-27T09:34:08.160Z,10.80
2019-03-27T09:36:36.781Z,12.53
2019-03-27T09:39:08.415Z,12.00
2019-03-27T09:41:36.936Z,12.13
2019-03-27T09:44:05.686Z,10.30
2019-03-27T09:46:34.221Z,11.28
2019-03-27T09:49:02.819Z,10.80
2019-03-27T09:51:31.898Z,11.35
2019-03-27T09:54:00.471Z,9.75
2019-03-27T09:56:29.065Z,10.68
2019-03-27T09:58:57.828Z,10.20
2019-03-27T10:01:26.308Z,10.25
2019-03-27T10:03:54.781Z,9.80
2019-03-27T10:06:23.260Z,9.33
2019-03-27T10:08:51.792Z,10.10
2019-03-27T10:11:23.634Z,11.57
2019-03-27T10:13:50.464Z,13.95
2019-03-27T10:16:19.061Z,13.10
2019-03-27T10:18:47.771Z,10.63
2019-03-27T10:21:16.243Z,13.78
2019-03-27T10:23:44.712Z,10.60
2019-03-27T10:26:13.537Z,14.90
2019-03-27T10:28:42.061Z,12.43
2019-03-27T10:31:10.603Z,9.38
2019-03-27T10:33:39.128Z,12.80
2019-03-27T10:36:07.607Z,12.30
2019-03-27T10:38:36.065Z,12.20
2019-03-27T10:41:04.503Z,12.00
2019-03-27T10:43:32.978Z,9.13
2019-03-27T10:46:01.429Z,10.48
2019-03-27T10:48:29.926Z,8.63
2019-03-27T10:50:58.447Z,12.03
2019-03-27T10:53:26.896Z,9.35
2019-03-27T10:55:55.361Z,10.08
2019-03-27T10:58:23.900Z,13.22
2019-03-27T11:00:52.430Z,12.07
2019-03-27T11:03:20.908Z,14.23
2019-03-27T11:05:49.488Z,13.53
2019-03-27T11:08:18.026Z,13.60
2019-03-27T11:10:46.506Z,11.48
2019-03-27T11:13:14.999Z,18.07
2019-03-27T11:15:48.071Z,9.85
2019-03-27T11:18:16.622Z,9.67
2019-03-27T11:20:45.262Z,9.05
2019-03-27T11:23:13.840Z,6.37
2019-03-27T11:25:42.398Z,7.22
2019-03-27T11:28:10.907Z,7.47
2019-03-27T11:30:41.237Z,8.05
2019-03-27T11:33:09.929Z,10.85
2019-03-27T11:35:38.491Z,9.03
2019-03-27T11:38:07.108Z,6.08
2019-03-27T11:40:35.593Z,4.05
2019-03-27T11:43:04.829Z,2.45
2019-03-27T11:45:33.413Z,9.55
2019-03-27T11:48:02.550Z,10.28
2019-03-27T11:50:43.699Z,5.50
2019-03-27T11:53:01.422Z,5.78
2019-03-27T11:55:29.938Z,8.88
2019-03-27T11:57:58.472Z,7.08
2019-03-27T12:00:27.110Z,7.90
2019-03-27T12:02:55.649Z,5.85
2019-03-27T12:05:24.161Z,6.37
2019-03-27T12:07:52.631Z,10.10
2019-03-27T12:10:21.157Z,7.95
2019-03-27T12:12:49.822Z,8.88
2019-03-27T12:15:21.423Z,5.75
2019-03-27T12:17:50.005Z,8.70
2019-03-27T12:20:18.845Z,8.58
2019-03-27T12:22:57.333Z,8.28
2019-03-27T12:25:17.552Z,14.18
2019-03-27T12:27:46.048Z,8.88
2019-03-27T12:30:15.042Z,6.85
2019-03-27T12:32:43.617Z,7.28
2019-03-27T12:35:12.174Z,7.28
2019-03-27T12:37:40.752Z,6.53
2019-03-27T12:40:11.714Z,7.70
2019-03-27T12:42:39.574Z,7.97
2019-03-27T12:45:08.142Z,7.42
2019-03-27T12:47:36.711Z,5.65
2019-03-27T12:50:07.321Z,7.08
2019-03-27T12:52:35.852Z,7.40
2019-03-27T12:55:05.852Z,8.33
2019-03-27T12:57:34.416Z,9.10
2019-03-27T13:00:02.945Z,9.05
2019-03-27T13:02:31.610Z,9.15
2019-03-27T13:05:00.367Z,9.83
2019-03-27T13:07:28.817Z,7.60
2019-03-27T13:09:57.293Z,9.78
2019-03-27T13:12:25.778Z,9.60
2019-03-27T13:14:54.223Z,10.75
2019-03-27T13:17:22.772Z,9.90
2019-03-27T13:19:51.226Z,8.58
2019-03-27T13:22:19.769Z,8.78
2019-03-27T13:24:48.253Z,6.25
2019-03-27T13:27:16.804Z,8.90
2019-03-27T13:29:45.665Z,6.78
2019-03-27T13:32:14.154Z,8.00
2019-03-27T13:34:42.608Z,8.85
2019-03-27T13:37:11.051Z,9.00
2019-03-27T13:39:39.554Z,7.67
2019-03-27T13:42:08.001Z,9.48
2019-03-27T13:44:37.608Z,7.60
2019-03-27T13:47:06.468Z,9.75
2019-03-27T13:49:35.044Z,8.65
2019-03-27T13:52:03.572Z,9.58
2019-03-27T13:54:32.054Z,8.38
2019-03-27T13:57:00.514Z,9.18
2019-03-27T13:59:29.761Z,6.67
2019-03-27T14:01:58.267Z,10.35
2019-03-27T14:04:26.867Z,7.62
2019-03-27T14:06:55.316Z,10.68
2019-03-27T14:09:23.805Z,8.15
2019-03-27T14:11:52.276Z,9.03
2019-03-27T14:14:20.732Z,10.43
2019-03-27T14:16:49.305Z,9.33
2019-03-27T14:19:17.773Z,9.08
2019-03-27T14:21:54.577Z,8.68
2019-03-27T14:24:16.432Z,7.87
2019-03-27T14:26:45.702Z,6.45
2019-03-27T14:29:14.292Z,9.60
2019-03-27T14:31:42.797Z,15.65
2019-03-27T14:34:11.266Z,15.40
2019-03-27T14:36:39.732Z,14.83
2019-03-27T14:39:08.528Z,14.63
2019-03-27T14:41:37.865Z,12.35
2019-03-27T14:44:06.438Z,14.07
2019-03-27T14:46:35.172Z,14.18
2019-03-27T14:49:03.704Z,12.60
2019-03-27T14:51:32.263Z,13.80
2019-03-27T14:54:00.729Z,11.38
2019-03-27T14:56:29.350Z,13.70
2019-03-27T14:58:58.167Z,15.55
2019-03-27T15:01:26.649Z,14.83
2019-03-27T15:03:55.116Z,17.77
2019-03-27T15:06:23.606Z,12.75
2019-03-27T15:08:52.163Z,15.63
2019-03-27T15:11:20.632Z,13.18
2019-03-27T15:13:49.102Z,17.92
2019-03-27T15:16:17.749Z,14.30
2019-03-27T15:18:47.832Z,17.70
2019-03-27T15:21:16.707Z,20.90
2019-03-27T15:23:46.882Z,15.40
2019-03-27T15:26:15.691Z,13.60
2019-03-27T15:28:50.899Z,14.90
2019-03-27T15:31:20.915Z,12.75
2019-03-27T15:33:57.429Z,10.30
2019-03-27T15:36:25.910Z,13.35
2019-03-27T15:38:54.434Z,18.10
2019-03-27T15:41:22.939Z,19.20
2019-03-27T15:43:51.418Z,13.40
2019-03-27T15:46:19.955Z,15.80
2019-03-27T15:48:48.503Z,19.52
2019-03-27T15:51:17.054Z,20.17
2019-03-27T15:53:47.645Z,21.00
2019-03-27T15:56:16.017Z,21.23
2019-03-27T15:58:46.123Z,21.45
2019-03-27T16:01:15.157Z,20.08
2019-03-27T16:03:43.744Z,18.12
2019-03-27T16:06:12.303Z,17.52
2019-03-27T16:08:40.788Z,20.65
2019-03-27T16:11:09.388Z,23.47
2019-03-27T16:13:37.852Z,21.75
2019-03-27T16:16:08.122Z,21.52
2019-03-27T16:18:49.002Z,22.90
2019-03-27T16:21:18.320Z,24.10
2019-03-27T16:23:48.543Z,23.60
2019-03-27T16:26:19.504Z,20.77
2019-03-27T16:28:48.249Z,21.30
2019-03-27T16:31:16.995Z,21.23
2019-03-27T16:33:45.730Z,22.30
2019-03-27T16:36:20.707Z,27.98
2019-03-27T16:38:49.372Z,25.95
2019-03-27T16:41:18.128Z,24.20
2019-03-27T16:43:46.775Z,23.30
2019-03-27T16:46:15.483Z,25.60
2019-03-27T16:48:44.874Z,26.27
2019-03-27T16:51:13.532Z,27.02
2019-03-27T16:53:42.183Z,29.72
2019-03-27T16:56:10.865Z,37.65
2019-03-27T16:58:39.493Z,33.45
2019-03-27T17:01:08.170Z,31.73
2019-03-27T17:03:36.908Z,34.88
2019-03-27T17:06:05.988Z,28.17
2019-03-27T17:08:34.660Z,28.32
2019-03-27T17:11:03.416Z,33.75
2019-03-27T17:13:32.164Z,32.67
2019-03-27T17:16:00.835Z,32.85
2019-03-27T17:18:29.492Z,26.65
2019-03-27T17:20:58.164Z,26.17
2019-03-27T17:23:26.826Z,22.15
2019-03-27T17:25:55.522Z,21.00
2019-03-27T17:28:24.363Z,18.98
2019-03-27T17:30:53.135Z,21.52
2019-03-27T17:33:22.142Z,26.82
2019-03-27T17:35:50.895Z,22.37
2019-03-27T17:38:19.653Z,21.80
2019-03-27T17:40:48.367Z,23.32
2019-03-27T17:43:17.080Z,18.00
2019-03-27T17:45:45.833Z,22.77
2019-03-27T17:48:14.504Z,24.82
2019-03-27T17:50:44.867Z,25.97
2019-03-27T17:53:13.581Z,17.85
2019-03-27T17:55:42.699Z,22.07
2019-03-27T17:58:11.332Z,24.30
2019-03-27T18:00:48.686Z,21.33
2019-03-27T18:03:17.490Z,24.87
2019-03-27T18:05:46.316Z,25.08
2019-03-27T18:08:15.228Z,18.05
2019-03-27T18:10:43.772Z,20.27
2019-03-27T18:13:12.352Z,24.23
2019-03-27T18:15:41.193Z,24.57
2019-03-27T18:18:09.758Z,20.75
2019-03-27T18:20:38.482Z,22.52
2019-03-27T18:23:07.031Z,23.02
2019-03-27T18:25:35.528Z,27.93
2019-03-27T18:28:04.073Z,24.80
2019-03-27T18:30:32.550Z,21.00
2019-03-27T18:33:01.220Z,21.82
2019-03-27T18:35:29.678Z,25.00
2019-03-27T18:37:58.187Z,22.32
2019-03-27T18:40:26.754Z,19.42
2019-03-27T18:42:55.694Z,20.23
2019-03-27T18:45:24.225Z,19.40
2019-03-27T18:47:52.702Z,19.12
2019-03-27T18:50:21.196Z,21.65
2019-03-27T18:52:49.654Z,19.82
2019-03-27T18:55:26.288Z,19.27
2019-03-27T18:57:59.525Z,18.35
2019-03-27T19:00:18.923Z,21.65
2019-03-27T19:02:47.446Z,19.70
2019-03-27T19:05:16.017Z,23.52
2019-03-27T19:07:44.562Z,17.52
2019-03-27T19:10:13.370Z,18.48
2019-03-27T19:12:41.901Z,19.85
2019-03-27T19:15:10.515Z,21.30
2019-03-27T19:17:39.011Z,20.32
2019-03-27T19:20:08.127Z,23.45
2019-03-27T19:22:36.675Z,21.60
2019-03-27T19:25:07.381Z,22.13
2019-03-27T19:27:36.107Z,22.52
2019-03-27T19:30:07.611Z,18.85
2019-03-27T19:32:36.239Z,14.83
2019-03-27T19:35:06.483Z,15.78
2019-03-27T19:37:34.938Z,16.62
2019-03-27T19:40:05.156Z,17.95
2019-03-27T19:42:33.858Z,16.65
2019-03-27T19:45:05.799Z,20.80
2019-03-27T19:47:40.863Z,20.08
2019-03-27T19:50:11.497Z,18.52
2019-03-27T19:52:47.970Z,21.23
2019-03-27T19:55:17.297Z,19.95
2019-03-27T19:57:46.712Z,23.77
2019-03-27T20:00:16.243Z,27.90
2019-03-27T20:02:45.888Z,23.70
2019-03-27T20:05:14.679Z,21.97
2019-03-27T20:07:44.257Z,22.52
2019-03-27T20:10:15.425Z,25.25
2019-03-27T20:12:43.886Z,23.62
2019-03-27T20:15:12.974Z,22.82
2019-03-27T20:17:41.860Z,25.43
2019-03-27T20:20:10.555Z,23.75
2019-03-27T20:22:39.151Z,26.40
2019-03-27T20:25:09.925Z,30.45
2019-03-27T20:27:38.446Z,28.27
2019-03-27T20:30:10.037Z,26.23
2019-03-27T20:32:38.500Z,26.55
2019-03-27T20:35:07.555Z,23.80
2019-03-27T20:37:36.099Z,25.97
2019-03-27T20:40:06.598Z,23.02
2019-03-27T20:42:35.220Z,20.52
2019-03-27T20:45:06.198Z,23.98
2019-03-27T20:47:34.734Z,18.23
2019-03-27T20:50:03.939Z,22.55
2019-03-27T20:52:32.407Z,24.43
2019-03-27T20:55:00.869Z,22.20
2019-03-27T20:57:29.332Z,24.27
2019-03-27T20:59:57.806Z,23.57
2019-03-27T21:02:26.301Z,21.33
2019-03-27T21:04:54.826Z,21.40
2019-03-27T21:07:24.700Z,23.92
2019-03-27T21:09:53.555Z,26.30
2019-03-27T21:12:30.187Z,24.47
2019-03-27T21:15:03.519Z,23.90
2019-03-27T21:17:46.743Z,21.77
2019-03-27T21:20:19.980Z,30.60
2019-03-27T21:28:52.124Z,33.70
2019-03-27T21:37:25.780Z,28.60
2019-03-27T21:48:56.423Z,25.92
2019-03-27T21:58:23.755Z,27.40
2019-03-27T22:00:52.348Z,28.87
2019-03-27T22:03:20.975Z,25.08
2019-03-27T22:05:49.635Z,29.42
2019-03-27T22:08:18.299Z,21.10
2019-03-27T22:10:46.986Z,20.75
2019-03-27T22:13:15.575Z,16.55
2019-03-27T22:15:44.174Z,28.73
2019-03-27T22:18:12.803Z,23.62
2019-03-27T22:20:41.387Z,31.80
2019-03-27T22:23:09.987Z,23.05
2019-03-27T22:25:38.592Z,32.73
2019-03-27T22:28:07.213Z,27.73
2019-03-27T22:30:35.806Z,22.15
2019-03-27T22:33:04.461Z,31.30
2019-03-27T22:35:33.087Z,27.40
2019-03-27T22:38:02.096Z,19.50
2019-03-27T22:40:30.695Z,21.60
2019-03-27T22:42:59.294Z,29.27
2019-03-27T22:45:27.904Z,25.08
2019-03-27T22:47:56.509Z,24.07
2019-03-27T22:50:25.095Z,24.25
2019-03-27T22:52:53.730Z,18.80
2019-03-27T22:55:22.316Z,28.57
2019-03-27T22:57:50.907Z,24.63
2019-03-27T23:00:21.779Z,26.27
2019-03-27T23:02:50.372Z,32.45
2019-03-27T23:05:19.057Z,28.57
2019-03-27T23:07:47.661Z,23.32
2019-03-27T23:10:16.308Z,23.92
2019-03-27T23:12:44.915Z,32.17
2019-03-27T23:15:14.039Z,26.37
2019-03-27T23:17:42.654Z,41.33
2019-03-27T23:20:11.600Z,29.75
2019-03-27T23:22:40.192Z,34.23
2019-03-27T23:25:09.931Z,28.15
2019-03-27T23:27:38.522Z,24.92
2019-03-27T23:30:09.863Z,28.17
2019-03-27T23:32:38.484Z,31.40
2019-03-27T23:35:10.271Z,34.40
2019-03-27T23:37:38.869Z,31.15
2019-03-27T23:40:08.229Z,33.08
2019-03-27T23:42:36.828Z,34.45
2019-03-27T23:45:07.869Z,34.45
2019-03-27T23:47:36.826Z,25.37
2019-03-27T23:50:08.533Z,25.48
2019-03-27T23:52:37.250Z,26.05
2019-03-27T23:55:07.572Z,20.88
2019-03-27T23:57:36.272Z,34.85
